Terminal Aerodrome Forecast
Issued by NWS

Home | Current Version | Previous Version | Text Only | Print | Product List | Glossary On
Versions: 1 2 3 4 5 6 7 8 9 10 11 12 13 14
000
FTUS43 KLSX 260530
TAFSUS
TAF
KSUS 260530Z 2606/2706 VRB03KT P6SM SKC
     FM261800 24005KT P6SM SCT060
     FM270000 28004KT P6SM BKN060
     FM270500 33004KT P6SM BKN050=

USA.gov is the U.S. government's official web portal to all federal, state and local government web resources and services.